sensor_id;sensor_type;location;lat;lon;timestamp;pressure;altitude;pressure_sealevel;temperature;humidity
26719;BME280;14326;50.794;6.060;2023-04-01T00:00:44;97486.09;;;9.47;100.00
26719;BME280;14326;50.794;6.060;2023-04-01T00:03:19;97475.47;;;9.47;100.00
26719;BME280;14326;50.794;6.060;2023-04-01T00:06:20;97490.38;;;9.52;100.00
26719;BME280;14326;50.794;6.060;2023-04-01T00:09:20;97480.69;;;9.51;100.00
26719;BME280;14326;50.794;6.060;2023-04-01T00:12:12;97479.00;;;9.47;100.00
26719;BME280;14326;50.794;6.060;2023-04-01T00:15:15;97480.69;;;9.51;100.00
26719;BME280;14326;50.794;6.060;2023-04-01T00:18:12;97470.16;;;9.48;100.00
26719;BME280;14326;50.794;6.060;2023-04-01T00:21:01;97489.63;;;9.47;100.00
26719;BME280;14326;50.794;6.060;2023-04-01T00:26:42;97481.66;;;9.47;100.00
26719;BME280;14326;50.794;6.060;2023-04-01T00:29:43;97493.19;;;9.44;100.00
26719;BME280;14326;50.794;6.060;2023-04-01T00:32:25;97481.66;;;9.47;100.00
26719;BME280;14326;50.794;6.060;2023-04-01T00:35:03;97486.13;;;9.43;100.00
26719;BME280;14326;50.794;6.060;2023-04-01T00:37:49;97470.28;;;9.42;100.00
26719;BME280;14326;50.794;6.060;2023-04-01T00:40:25;97486.25;;;9.39;100.00
26719;BME280;14326;50.794;6.060;2023-04-01T00:42:54;97490.63;;;9.41;100.00
26719;BME280;14326;50.794;6.060;2023-04-01T00:45:28;97485.34;;;9.40;100.00
26719;BME280;14326;50.794;6.060;2023-04-01T00:47:59;97488.03;;;9.37;100.00
26719;BME280;14326;50.794;6.060;2023-04-01T00:50:28;97483.69;;;9.34;100.00
26719;BME280;14326;50.794;6.060;2023-04-01T00:52:59;97481.88;;;9.36;100.00
26719;BME280;14326;50.794;6.060;2023-04-01T00:55:32;97493.41;;;9.34;100.00
26719;BME280;14326;50.794;6.060;2023-04-01T00:58:41;97484.56;;;9.35;100.00
26719;BME280;14326;50.794;6.060;2023-04-01T01:01:15;97488.09;;;9.35;100.00
26719;BME280;14326;50.794;6.060;2023-04-01T01:03:47;97494.22;;;9.37;100.00
26719;BME280;14326;50.794;6.060;2023-04-01T01:06:24;97481.84;;;9.38;100.00
26719;BME280;14326;50.794;6.060;2023-04-01T01:09:05;97486.31;;;9.36;100.00
26719;BME280;14326;50.794;6.060;2023-04-01T01:12:02;97489.84;;;9.36;100.00
26719;BME280;14326;50.794;6.060;2023-04-01T01:15:02;97490.75;;;9.35;100.00
26719;BME280;14326;50.794;6.060;2023-04-01T01:18:02;97484.47;;;9.38;100.00
26719;BME280;14326;50.794;6.060;2023-04-01T01:21:30;97484.53;;;9.36;100.00
26719;BME280;14326;50.794;6.060;2023-04-01T01:24:38;97482.78;;;9.35;100.00
26719;BME280;14326;50.794;6.060;2023-04-01T01:27:23;97476.59;;;9.35;100.00
26719;BME280;14326;50.794;6.060;2023-04-01T01:30:31;97481.03;;;9.34;100.00
26719;BME280;14326;50.794;6.060;2023-04-01T01:33:34;97472.97;;;9.39;100.00
26719;BME280;14326;50.794;6.060;2023-04-01T01:36:16;97479.19;;;9.38;100.00
26719;BME280;14326;50.794;6.060;2023-04-01T01:39:19;97476.59;;;9.36;100.00
26719;BME280;14326;50.794;6.060;2023-04-01T01:42:04;97471.19;;;9.39;100.00
26719;BME280;14326;50.794;6.060;2023-04-01T01:45:06;97466.81;;;9.37;100.00
26719;BME280;14326;50.794;6.060;2023-04-01T01:48:08;97473.06;;;9.36;100.00
26719;BME280;14326;50.794;6.060;2023-04-01T01:50:45;97472.13;;;9.37;100.00
26719;BME280;14326;50.794;6.060;2023-04-01T01:53:25;97477.50;;;9.34;100.00
26719;BME280;14326;50.794;6.060;2023-04-01T01:56:13;97473.94;;;9.36;100.00
26719;BME280;14326;50.794;6.060;2023-04-01T01:58:56;97473.19;;;9.28;100.00
26719;BME280;14326;50.794;6.060;2023-04-01T02:01:37;97481.06;;;9.33;100.00
26719;BME280;14326;50.794;6.060;2023-04-01T02:04:06;97477.56;;;9.31;100.00
26719;BME280;14326;50.794;6.060;2023-04-01T02:06:45;97470.53;;;9.30;100.00
26719;BME280;14326;50.794;6.060;2023-04-01T02:09:23;97468.75;;;9.30;100.00
26719;BME280;14326;50.794;6.060;2023-04-01T02:12:02;97473.19;;;9.28;100.00
26719;BME280;14326;50.794;6.060;2023-04-01T02:14:39;97472.31;;;9.28;100.00
26719;BME280;14326;50.794;6.060;2023-04-01T02:17:17;97468.81;;;9.26;100.00
26719;BME280;14326;50.794;6.060;2023-04-01T02:19:51;97468.88;;;9.24;100.00
26719;BME280;14326;50.794;6.060;2023-04-01T02:22:21;97477.66;;;9.25;100.00
26719;BME280;14326;50.794;6.060;2023-04-01T02:24:53;97476.75;;;9.27;100.00
26719;BME280;14326;50.794;6.060;2023-04-01T02:27:23;97477.66;;;9.25;100.00
26719;BME280;14326;50.794;6.060;2023-04-01T02:29:50;97475.94;;;9.24;100.00
26719;BME280;14326;50.794;6.060;2023-04-01T02:32:31;97486.56;;;9.24;100.00
26719;BME280;14326;50.794;6.060;2023-04-01T02:35:01;97476.84;;;9.23;100.00
26719;BME280;14326;50.794;6.060;2023-04-01T02:37:36;97478.53;;;9.27;100.00
26719;BME280;14326;50.794;6.060;2023-04-01T02:40:18;97479.41;;;9.26;100.00
26719;BME280;14326;50.794;6.060;2023-04-01T02:42:45;97480.31;;;9.25;100.00
26719;BME280;14326;50.794;6.060;2023-04-01T02:45:13;97486.56;;;9.24;100.00
26719;BME280;14326;50.794;6.060;2023-04-01T02:47:44;97491.00;;;9.23;100.00
26719;BME280;14326;50.794;6.060;2023-04-01T02:50:12;97476.88;;;9.21;100.00
26719;BME280;14326;50.794;6.060;2023-04-01T02:52:46;97488.38;;;9.20;100.00
26719;BME280;14326;50.794;6.060;2023-04-01T02:55:20;97497.22;;;9.21;100.00
26719;BME280;14326;50.794;6.060;2023-04-01T02:57:48;97491.00;;;9.22;100.00
26719;BME280;14326;50.794;6.060;2023-04-01T03:00:29;97490.09;;;9.24;100.00
26719;BME280;14326;50.794;6.060;2023-04-01T03:03:16;97490.09;;;9.24;100.00
26719;BME280;14326;50.794;6.060;2023-04-01T03:06:14;97486.47;;;9.27;100.00
26719;BME280;14326;50.794;6.060;2023-04-01T03:09:03;97493.56;;;9.26;100.00
26719;BME280;14326;50.794;6.060;2023-04-01T03:11:31;97495.34;;;9.26;100.00
26719;BME280;14326;50.794;6.060;2023-04-01T03:13:58;97500.72;;;9.23;100.00
26719;BME280;14326;50.794;6.060;2023-04-01T03:16:31;97492.75;;;9.24;100.00
26719;BME280;14326;50.794;6.060;2023-04-01T03:19:33;97491.00;;;9.23;100.00
26719;BME280;14326;50.794;6.060;2023-04-01T03:22:17;97507.78;;;9.24;100.00
26719;BME280;14326;50.794;6.060;2023-04-01T03:24:57;97500.81;;;9.18;100.00
26719;BME280;14326;50.794;6.060;2023-04-01T03:27:30;97506.91;;;9.22;100.00
26719;BME280;14326;50.794;6.060;2023-04-01T03:30:02;97507.91;;;9.18;100.00
26719;BME280;14326;50.794;6.060;2023-04-01T03:32:35;97505.16;;;9.21;100.00
26719;BME280;14326;50.794;6.060;2023-04-01T03:35:02;97507.78;;;9.24;100.00
26719;BME280;14326;50.794;6.060;2023-04-01T03:37:50;97508.66;;;9.24;100.00
26719;BME280;14326;50.794;6.060;2023-04-01T03:40:23;97511.31;;;9.23;100.00
26719;BME280;14326;50.794;6.060;2023-04-01T03:42:52;97520.09;;;9.25;100.00
26719;BME280;14326;50.794;6.060;2023-04-01T03:45:30;97519.22;;;9.26;100.00
26719;BME280;14326;50.794;6.060;2023-04-01T03:48:06;97506.72;;;9.32;100.00
26719;BME280;14326;50.794;6.060;2023-04-01T03:50:45;97526.22;;;9.30;100.00
26719;BME280;14326;50.794;6.060;2023-04-01T03:53:32;97525.38;;;9.28;100.00
26719;BME280;14326;50.794;6.060;2023-04-01T03:56:04;97517.34;;;9.31;100.00
26719;BME280;14326;50.794;6.060;2023-04-01T03:58:44;97521.69;;;9.35;100.00
26719;BME280;14326;50.794;6.060;2023-04-01T04:01:20;97531.44;;;9.34;100.00
26719;BME280;14326;50.794;6.060;2023-04-01T04:04:13;97535.00;;;9.32;100.00
26719;BME280;14326;50.794;6.060;2023-04-01T04:06:50;97543.88;;;9.31;100.00
26719;BME280;14326;50.794;6.060;2023-04-01T04:09:23;97534.22;;;9.27;100.00
26719;BME280;14326;50.794;6.060;2023-04-01T04:12:00;97546.59;;;9.28;100.00
26719;BME280;14326;50.794;6.060;2023-04-01T04:14:37;97550.03;;;9.31;100.00
26719;BME280;14326;50.794;6.060;2023-04-01T04:17:23;97551.88;;;9.29;100.00
26719;BME280;14326;50.794;6.060;2023-04-01T04:19:55;97551.03;;;9.27;100.00
26719;BME280;14326;50.794;6.060;2023-04-01T04:22:21;97545.72;;;9.27;100.00
26719;BME280;14326;50.794;6.060;2023-04-01T04:24:51;97549.25;;;9.26;100.00
26719;BME280;14326;50.794;6.060;2023-04-01T04:27:17;97551.91;;;9.26;100.00
26719;BME280;14326;50.794;6.060;2023-04-01T04:29:45;97555.44;;;9.28;100.00
26719;BME280;14326;50.794;6.060;2023-04-01T04:32:15;97555.44;;;9.27;100.00
26719;BME280;14326;50.794;6.060;2023-04-01T04:34:49;97559.84;;;9.28;100.00
26719;BME280;14326;50.794;6.060;2023-04-01T04:37:15;97565.16;;;9.28;100.00
26719;BME280;14326;50.794;6.060;2023-04-01T04:39:42;97566.00;;;9.30;100.00
26719;BME280;14326;50.794;6.060;2023-04-01T04:42:09;97558.06;;;9.30;100.00
26719;BME280;14326;50.794;6.060;2023-04-01T04:44:37;97558.06;;;9.28;100.00
26719;BME280;14326;50.794;6.060;2023-04-01T04:47:05;97574.00;;;9.28;100.00
26719;BME280;14326;50.794;6.060;2023-04-01T04:49:32;97576.66;;;9.28;100.00
26719;BME280;14326;50.794;6.060;2023-04-01T04:52:02;97571.38;;;9.27;100.00
26719;BME280;14326;50.794;6.060;2023-04-01T04:54:31;97565.97;;;9.31;100.00
26719;BME280;14326;50.794;6.060;2023-04-01T04:56:58;97580.16;;;9.30;100.00
26719;BME280;14326;50.794;6.060;2023-04-01T04:59:25;97580.88;;;9.37;100.00
26719;BME280;14326;50.794;6.060;2023-04-01T05:01:51;97581.00;;;9.31;100.00
26719;BME280;14326;50.794;6.060;2023-04-01T05:04:19;97588.13;;;9.29;100.00
26719;BME280;14326;50.794;6.060;2023-04-01T05:06:46;97580.16;;;9.30;100.00
26719;BME280;14326;50.794;6.060;2023-04-01T05:09:15;97590.81;;;9.26;100.00
26719;BME280;14326;50.794;6.060;2023-04-01T05:11:41;97598.78;;;9.26;100.00
26719;BME280;14326;50.794;6.060;2023-04-01T05:16:43;97597.00;;;9.26;100.00
26719;BME280;14326;50.794;6.060;2023-04-01T05:19:10;97601.41;;;9.29;100.00
26719;BME280;14326;50.794;6.060;2023-04-01T05:21:41;97611.16;;;9.25;100.00
26719;BME280;14326;50.794;6.060;2023-04-01T05:24:11;97601.50;;;9.24;100.00
26719;BME280;14326;50.794;6.060;2023-04-01T05:26:41;97605.88;;;9.25;100.00
26719;BME280;14326;50.794;6.060;2023-04-01T05:29:08;97612.84;;;9.31;100.00
26719;BME280;14326;50.794;6.060;2023-04-01T05:31:45;97612.94;;;9.25;100.00
26719;BME280;14326;50.794;6.060;2023-04-01T05:34:13;97612.03;;;9.27;100.00
26719;BME280;14326;50.794;6.060;2023-04-01T05:37:10;97613.81;;;9.27;100.00
26719;BME280;14326;50.794;6.060;2023-04-01T05:39:56;97629.72;;;9.25;100.00
26719;BME280;14326;50.794;6.060;2023-04-01T05:42:24;97628.00;;;9.24;100.00
26719;BME280;14326;50.794;6.060;2023-04-01T05:44:51;97624.50;;;9.22;100.00
26719;BME280;14326;50.794;6.060;2023-04-01T05:47:18;97633.31;;;9.24;100.00
26719;BME280;14326;50.794;6.060;2023-04-01T05:49:44;97649.25;;;9.23;100.00
26719;BME280;14326;50.794;6.060;2023-04-01T05:55:41;97631.59;;;9.20;100.00
26719;BME280;14326;50.794;6.060;2023-04-01T05:58:23;97644.91;;;9.19;100.00
26719;BME280;14326;50.794;6.060;2023-04-01T06:01:06;97642.16;;;9.23;100.00
26719;BME280;14326;50.794;6.060;2023-04-01T06:03:33;97647.47;;;9.23;100.00
26719;BME280;14326;50.794;6.060;2023-04-01T06:06:00;97644.84;;;9.22;100.00
26719;BME280;14326;50.794;6.060;2023-04-01T06:08:27;97651.91;;;9.23;100.00
26719;BME280;14326;50.794;6.060;2023-04-01T06:11:07;97654.66;;;9.17;100.00
26719;BME280;14326;50.794;6.060;2023-04-01T06:16:44;97665.25;;;9.18;100.00
26719;BME280;14326;50.794;6.060;2023-04-01T06:19:24;97664.38;;;9.18;100.00
26719;BME280;14326;50.794;6.060;2023-04-01T06:22:22;97666.06;;;9.20;100.00
26719;BME280;14326;50.794;6.060;2023-04-01T06:25:10;97668.69;;;9.23;100.00
26719;BME280;14326;50.794;6.060;2023-04-01T06:27:55;97667.81;;;9.23;100.00
26719;BME280;14326;50.794;6.060;2023-04-01T06:30:40;97659.06;;;9.18;100.00
26719;BME280;14326;50.794;6.060;2023-04-01T06:33:30;97680.09;;;9.28;100.00
26719;BME280;14326;50.794;6.060;2023-04-01T06:36:25;97677.44;;;9.30;100.00
26719;BME280;14326;50.794;6.060;2023-04-01T06:39:22;97676.47;;;9.32;100.00
26719;BME280;14326;50.794;6.060;2023-04-01T06:45:20;97677.38;;;9.31;100.00
26719;BME280;14326;50.794;6.060;2023-04-01T06:48:04;97685.28;;;9.34;100.00
26719;BME280;14326;50.794;6.060;2023-04-01T06:50:52;97676.47;;;9.34;100.00
26719;BME280;14326;50.794;6.060;2023-04-01T06:53:54;97682.66;;;9.34;100.00
26719;BME280;14326;50.794;6.060;2023-04-01T06:56:38;97691.47;;;9.35;100.00
26719;BME280;14326;50.794;6.060;2023-04-01T06:59:14;97692.38;;;9.35;100.00
26719;BME280;14326;50.794;6.060;2023-04-01T07:01:54;97692.31;;;9.37;100.00
26719;BME280;14326;50.794;6.060;2023-04-01T07:04:24;97687.84;;;9.42;100.00
26719;BME280;14326;50.794;6.060;2023-04-01T07:10:17;97700.22;;;9.41;100.00
26719;BME280;14326;50.794;6.060;2023-04-01T07:12:50;97702.78;;;9.46;100.00
26719;BME280;14326;50.794;6.060;2023-04-01T07:15:26;97702.81;;;9.44;100.00
26719;BME280;14326;50.794;6.060;2023-04-01T07:18:03;97704.56;;;9.44;100.00
26719;BME280;14326;50.794;6.060;2023-04-01T07:20:55;97705.44;;;9.46;100.00
26719;BME280;14326;50.794;6.060;2023-04-01T07:23:44;97712.56;;;9.42;100.00
26719;BME280;14326;50.794;6.060;2023-04-01T07:26:28;97717.84;;;9.42;100.00
26719;BME280;14326;50.794;6.060;2023-04-01T07:29:12;97715.19;;;9.44;100.00
26719;BME280;14326;50.794;6.060;2023-04-01T07:32:22;97723.16;;;9.42;100.00
26719;BME280;14326;50.794;6.060;2023-04-01T07:35:09;97737.38;;;9.40;100.00
26719;BME280;14326;50.794;6.060;2023-04-01T07:37:46;97730.31;;;9.39;100.00
26719;BME280;14326;50.794;6.060;2023-04-01T07:40:40;97736.44;;;9.42;100.00
26719;BME280;14326;50.794;6.060;2023-04-01T07:43:22;97743.44;;;9.48;100.00
26719;BME280;14326;50.794;6.060;2023-04-01T07:46:04;97747.78;;;9.52;100.00
26719;BME280;14326;50.794;6.060;2023-04-01T07:48:57;97756.72;;;9.48;100.00
26719;BME280;14326;50.794;6.060;2023-04-01T07:51:40;97753.19;;;9.46;100.00
26719;BME280;14326;50.794;6.060;2023-04-01T07:54:22;97763.84;;;9.43;100.00
26719;BME280;14326;50.794;6.060;2023-04-01T07:57:29;97758.53;;;9.44;100.00
26719;BME280;14326;50.794;6.060;2023-04-01T08:00:20;97762.13;;;9.42;100.00
26719;BME280;14326;50.794;6.060;2023-04-01T08:03:15;97770.09;;;9.42;100.00
26719;BME280;14326;50.794;6.060;2023-04-01T08:06:06;97769.13;;;9.46;100.00
26719;BME280;14326;50.794;6.060;2023-04-01T08:09:01;97771.75;;;9.48;100.00
26719;BME280;14326;50.794;6.060;2023-04-01T08:12:01;97773.47;;;9.50;100.00
26719;BME280;14326;50.794;6.060;2023-04-01T08:14:52;97794.75;;;9.47;100.00
26719;BME280;14326;50.794;6.060;2023-04-01T08:17:30;97788.56;;;9.48;100.00
26719;BME280;14326;50.794;6.060;2023-04-01T08:20:18;97791.22;;;9.48;100.00
26719;BME280;14326;50.794;6.060;2023-04-01T08:22:59;97800.00;;;9.50;100.00
26719;BME280;14326;50.794;6.060;2023-04-01T08:25:34;97800.00;;;9.49;100.00
26719;BME280;14326;50.794;6.060;2023-04-01T08:28:05;97804.41;;;9.51;100.00
26719;BME280;14326;50.794;6.060;2023-04-01T08:30:43;97806.09;;;9.57;100.00
26719;BME280;14326;50.794;6.060;2023-04-01T08:33:24;97810.50;;;9.58;100.00
26719;BME280;14326;50.794;6.060;2023-04-01T08:36:10;97817.66;;;9.54;100.00
26719;BME280;14326;50.794;6.060;2023-04-01T08:39:08;97809.63;;;9.56;100.00
26719;BME280;14326;50.794;6.060;2023-04-01T08:42:16;97816.59;;;9.63;100.00
26719;BME280;14326;50.794;6.060;2023-04-01T08:45:18;97824.66;;;9.57;100.00
26719;BME280;14326;50.794;6.060;2023-04-01T08:48:30;97825.53;;;9.57;100.00
26719;BME280;14326;50.794;6.060;2023-04-01T08:51:15;97827.31;;;9.58;100.00
26719;BME280;14326;50.794;6.060;2023-04-01T08:57:20;97836.06;;;9.65;100.00
26719;BME280;14326;50.794;6.060;2023-04-01T09:03:19;97849.41;;;9.59;100.00
26719;BME280;14326;50.794;6.060;2023-04-01T09:06:11;97844.94;;;9.62;100.00
26719;BME280;14326;50.794;6.060;2023-04-01T09:09:15;97854.56;;;9.69;100.00
26719;BME280;14326;50.794;6.060;2023-04-01T09:12:23;97851.09;;;9.66;100.00
26719;BME280;14326;50.794;6.060;2023-04-01T09:21:47;97857.09;;;9.75;100.00
26719;BME280;14326;50.794;6.060;2023-04-01T09:24:42;97871.19;;;9.80;100.00
26719;BME280;14326;50.794;6.060;2023-04-01T09:27:31;97866.78;;;9.78;100.00
26719;BME280;14326;50.794;6.060;2023-04-01T09:37:02;97874.69;;;9.82;100.00
26719;BME280;14326;50.794;6.060;2023-04-01T09:39:36;97874.69;;;9.82;100.00
26719;BME280;14326;50.794;6.060;2023-04-01T09:52:24;97894.97;;;9.86;100.00
26719;BME280;14326;50.794;6.060;2023-04-01T10:05:19;97906.41;;;9.92;100.00
26719;BME280;14326;50.794;6.060;2023-04-01T10:08:14;97908.97;;;9.96;100.00
26719;BME280;14326;50.794;6.060;2023-04-01T10:11:22;97896.47;;;10.03;100.00
26719;BME280;14326;50.794;6.060;2023-04-01T10:17:49;97916.13;;;9.94;100.00
26719;BME280;14326;50.794;6.060;2023-04-01T10:20:46;97925.84;;;9.94;100.00
26719;BME280;14326;50.794;6.060;2023-04-01T10:47:55;97936.22;;;10.09;100.00
26719;BME280;14326;50.794;6.060;2023-04-01T10:50:57;97939.69;;;10.17;100.00
26719;BME280;14326;50.794;6.060;2023-04-01T10:53:38;97940.47;;;10.23;100.00
26719;BME280;14326;50.794;6.060;2023-04-01T10:56:33;97939.56;;;10.24;100.00
26719;BME280;14326;50.794;6.060;2023-04-01T11:11:29;97951.91;;;10.27;100.00
26719;BME280;14326;50.794;6.060;2023-04-01T11:14:38;97950.19;;;10.24;100.00
26719;BME280;14326;50.794;6.060;2023-04-01T11:17:48;97963.44;;;10.26;100.00
26719;BME280;14326;50.794;6.060;2023-04-01T11:23:35;97963.50;;;10.23;100.00
26719;BME280;14326;50.794;6.060;2023-04-01T11:26:18;97960.75;;;10.29;100.00
26719;BME280;14326;50.794;6.060;2023-04-01T11:29:08;97966.09;;;10.26;100.00
26719;BME280;14326;50.794;6.060;2023-04-01T11:32:19;97973.22;;;10.24;100.00
26719;BME280;14326;50.794;6.060;2023-04-01T11:35:00;97977.75;;;10.19;100.00
26719;BME280;14326;50.794;6.060;2023-04-01T11:37:55;97975.97;;;10.15;100.00
26719;BME280;14326;50.794;6.060;2023-04-01T11:40:41;97977.69;;;10.20;100.00
26719;BME280;14326;50.794;6.060;2023-04-01T11:43:25;97982.91;;;10.25;100.00
26719;BME280;14326;50.794;6.060;2023-04-01T11:46:20;97986.34;;;10.32;100.00
26719;BME280;14326;50.794;6.060;2023-04-01T11:55:25;97994.19;;;10.42;100.00
26719;BME280;14326;50.794;6.060;2023-04-01T12:01:27;97999.44;;;10.44;100.00
26719;BME280;14326;50.794;6.060;2023-04-01T12:07:01;97998.63;;;10.40;100.00
26719;BME280;14326;50.794;6.060;2023-04-01T12:09:35;98003.94;;;10.42;100.00
26719;BME280;14326;50.794;6.060;2023-04-01T12:12:15;98006.63;;;10.40;100.00
26719;BME280;14326;50.794;6.060;2023-04-01T12:14:48;98016.44;;;10.35;100.00
26719;BME280;14326;50.794;6.060;2023-04-01T12:17:39;98028.00;;;10.31;100.00
26719;BME280;14326;50.794;6.060;2023-04-01T12:20:43;98019.97;;;10.36;100.00
26719;BME280;14326;50.794;6.060;2023-04-01T12:23:16;98025.31;;;10.34;100.00
26719;BME280;14326;50.794;6.060;2023-04-01T12:29:03;98043.03;;;10.34;100.00
26719;BME280;14326;50.794;6.060;2023-04-01T12:34:59;98039.47;;;10.35;100.00
26719;BME280;14326;50.794;6.060;2023-04-01T12:40:47;98038.50;;;10.42;100.00
26719;BME280;14326;50.794;6.060;2023-04-01T12:43:54;98034.06;;;10.41;100.00
26719;BME280;14326;50.794;6.060;2023-04-01T12:46:47;98042.84;;;10.44;100.00
26719;BME280;14326;50.794;6.060;2023-04-01T12:50:19;98042.81;;;10.47;100.00
26719;BME280;14326;50.794;6.060;2023-04-01T12:53:18;98048.97;;;10.49;100.00
26719;BME280;14326;50.794;6.060;2023-04-01T12:55:50;98041.94;;;10.48;100.00
26719;BME280;14326;50.794;6.060;2023-04-01T13:02:04;98057.00;;;10.46;100.00
26719;BME280;14326;50.794;6.060;2023-04-01T13:08:02;98062.25;;;10.51;100.00
26719;BME280;14326;50.794;6.060;2023-04-01T13:10:38;98066.66;;;10.53;100.00
26719;BME280;14326;50.794;6.060;2023-04-01T13:16:42;98067.56;;;10.52;100.00
26719;BME280;14326;50.794;6.060;2023-04-01T13:19:29;98060.53;;;10.48;100.00
26719;BME280;14326;50.794;6.060;2023-04-01T13:22:07;98073.81;;;10.48;100.00
26719;BME280;14326;50.794;6.060;2023-04-01T13:25:05;98073.81;;;10.48;100.00
26719;BME280;14326;50.794;6.060;2023-04-01T13:30:36;98081.56;;;10.62;100.00
26719;BME280;14326;50.794;6.060;2023-04-01T13:33:13;98077.03;;;10.68;100.00
26719;BME280;14326;50.794;6.060;2023-04-01T13:35:46;98077.03;;;10.68;100.00
26719;BME280;14326;50.794;6.060;2023-04-01T13:38:47;98078.81;;;10.66;100.00
26719;BME280;14326;50.794;6.060;2023-04-01T13:41:29;98093.06;;;10.65;100.00
26719;BME280;14326;50.794;6.060;2023-04-01T13:44:06;98090.31;;;10.68;100.00
26719;BME280;14326;50.794;6.060;2023-04-01T13:46:46;98095.66;;;10.68;100.00
26719;BME280;14326;50.794;6.060;2023-04-01T13:55:11;98097.78;;;11.00;100.00
26719;BME280;14326;50.794;6.060;2023-04-01T13:58:10;98108.13;;;11.17;100.00
26719;BME280;14326;50.794;6.060;2023-04-01T14:00:51;98108.06;;;11.20;100.00
26719;BME280;14326;50.794;6.060;2023-04-01T14:03:37;98107.22;;;11.18;100.00
26719;BME280;14326;50.794;6.060;2023-04-01T14:06:31;98100.16;;;11.17;100.00
26719;BME280;14326;50.794;6.060;2023-04-01T14:09:20;98114.38;;;11.15;100.00
26719;BME280;14326;50.794;6.060;2023-04-01T14:11:58;98117.19;;;11.07;100.00
26719;BME280;14326;50.794;6.060;2023-04-01T14:14:51;98113.69;;;11.02;100.00
26719;BME280;14326;50.794;6.060;2023-04-01T14:17:43;98105.09;;;10.88;100.00
26719;BME280;14326;50.794;6.060;2023-04-01T14:20:38;98126.38;;;10.88;100.00
26719;BME280;14326;50.794;6.060;2023-04-01T14:26:06;98132.59;;;10.87;100.00
26719;BME280;14326;50.794;6.060;2023-04-01T14:28:44;98139.69;;;10.86;100.00
26719;BME280;14326;50.794;6.060;2023-04-01T14:31:34;98140.72;;;10.78;100.00
26719;BME280;14326;50.794;6.060;2023-04-01T14:34:21;98134.44;;;10.82;100.00
26719;BME280;14326;50.794;6.060;2023-04-01T14:37:05;98137.13;;;10.79;100.00
26719;BME280;14326;50.794;6.060;2023-04-01T14:39:53;98148.66;;;10.79;100.00
26719;BME280;14326;50.794;6.060;2023-04-01T14:42:39;98139.84;;;10.76;100.00
26719;BME280;14326;50.794;6.060;2023-04-01T14:45:40;98146.06;;;10.75;100.00
26719;BME280;14326;50.794;6.060;2023-04-01T14:48:24;98149.53;;;10.80;100.00
26719;BME280;14326;50.794;6.060;2023-04-01T14:50:53;98150.41;;;10.80;100.00
26719;BME280;14326;50.794;6.060;2023-04-01T14:53:27;98157.34;;;10.90;100.00
26719;BME280;14326;50.794;6.060;2023-04-01T14:55:58;98152.91;;;10.91;100.00
26719;BME280;14326;50.794;6.060;2023-04-01T14:58:42;98157.31;;;10.93;100.00
26719;BME280;14326;50.794;6.060;2023-04-01T15:01:40;98151.09;;;10.93;100.00
26719;BME280;14326;50.794;6.060;2023-04-01T15:04:29;98157.47;;;10.83;100.00
26719;BME280;14326;50.794;6.060;2023-04-01T15:10:12;98162.03;;;10.75;100.00
26719;BME280;14326;50.794;6.060;2023-04-01T15:16:27;98170.97;;;10.71;100.00
26719;BME280;14326;50.794;6.060;2023-04-01T15:19:20;98176.19;;;10.77;100.00
26719;BME280;14326;50.794;6.060;2023-04-01T15:22:27;98179.69;;;10.79;100.00
26719;BME280;14326;50.794;6.060;2023-04-01T15:25:19;98183.28;;;10.78;100.00
26719;BME280;14326;50.794;6.060;2023-04-01T15:28:02;98187.66;;;10.79;100.00
26719;BME280;14326;50.794;6.060;2023-04-01T15:30:39;98189.50;;;10.77;100.00
26719;BME280;14326;50.794;6.060;2023-04-01T15:36:42;98197.66;;;10.61;100.00
26719;BME280;14326;50.794;6.060;2023-04-01T15:39:51;98204.97;;;10.47;100.00
26719;BME280;14326;50.794;6.060;2023-04-01T15:42:53;98212.09;;;10.44;100.00
26719;BME280;14326;50.794;6.060;2023-04-01T15:45:55;98208.53;;;10.43;100.00
26719;BME280;14326;50.794;6.060;2023-04-01T15:48:54;98210.31;;;10.43;100.00
26719;BME280;14326;50.794;6.060;2023-04-01T15:54:54;98225.44;;;10.41;100.00
26719;BME280;14326;50.794;6.060;2023-04-01T15:57:29;98220.13;;;10.41;100.00
26719;BME280;14326;50.794;6.060;2023-04-01T16:00:40;98219.25;;;10.37;100.00
26719;BME280;14326;50.794;6.060;2023-04-01T16:03:36;98232.59;;;10.36;100.00
26719;BME280;14326;50.794;6.060;2023-04-01T16:06:22;98226.34;;;10.38;100.00
26719;BME280;14326;50.794;6.060;2023-04-01T16:09:27;98232.59;;;10.34;100.00
26719;BME280;14326;50.794;6.060;2023-04-01T16:12:10;98230.00;;;10.30;100.00
26719;BME280;14326;50.794;6.060;2023-04-01T16:14:49;98242.41;;;10.29;100.00
26719;BME280;14326;50.794;6.060;2023-04-01T16:17:36;98247.78;;;10.23;100.00
26719;BME280;14326;50.794;6.060;2023-04-01T16:20:18;98239.81;;;10.24;100.00
26719;BME280;14326;50.794;6.060;2023-04-01T16:22:53;98254.00;;;10.23;100.00
26719;BME280;14326;50.794;6.060;2023-04-01T16:25:31;98251.38;;;10.16;100.00
26719;BME280;14326;50.794;6.060;2023-04-01T16:28:16;98254.94;;;10.16;100.00
26719;BME280;14326;50.794;6.060;2023-04-01T16:31:25;98263.78;;;10.14;100.00
26719;BME280;14326;50.794;6.060;2023-04-01T16:37:17;98260.25;;;10.16;100.00
26719;BME280;14326;50.794;6.060;2023-04-01T16:40:22;98264.69;;;10.19;100.00
26719;BME280;14326;50.794;6.060;2023-04-01T16:42:54;98268.19;;;10.21;100.00
26719;BME280;14326;50.794;6.060;2023-04-01T16:45:37;98279.75;;;10.18;100.00
26719;BME280;14326;50.794;6.060;2023-04-01T16:48:12;98281.50;;;10.15;100.00
26719;BME280;14326;50.794;6.060;2023-04-01T16:50:44;98284.16;;;10.13;100.00
26719;BME280;14326;50.794;6.060;2023-04-01T16:55:52;98284.16;;;10.13;100.00
26719;BME280;14326;50.794;6.060;2023-04-01T17:01:13;98291.28;;;10.13;100.00
26719;BME280;14326;50.794;6.060;2023-04-01T17:03:52;98302.84;;;10.06;100.00
26719;BME280;14326;50.794;6.060;2023-04-01T17:06:28;98307.28;;;10.04;100.00
26719;BME280;14326;50.794;6.060;2023-04-01T17:09:26;98302.88;;;10.03;100.00